Time;durP1;ratioP1;P1;durP2;ratioP2;P2;SDS_P1;SDS_P2;PMS_P1;PMS_P2;Temp;Humidity;BMP_temperature;BMP_pressure;BME280_temperature;BME280_humidity;BME280_pressure;Samples;Min_cycle;Max_cycle;Signal;HPM_P1;HPM_P2
2023/05/04 00:02:19;;;;;;;10.32;4.10;;;7.10;99.90;;;;;;5095637;28;20373;-85
2023/05/04 00:04:45;;;;;;;9.02;3.85;;;7.20;99.90;;;;;;5095582;28;20040;-85
2023/05/04 00:07:11;;;;;;;15.43;4.13;;;7.20;99.90;;;;;;5095579;28;20044;-85
2023/05/04 00:09:37;;;;;;;13.23;4.07;;;7.20;99.90;;;;;;5095375;28;20048;-85
2023/05/04 00:12:03;;;;;;;9.75;4.63;;;7.20;99.90;;;;;;5095512;28;20093;-85
2023/05/04 00:14:29;;;;;;;9.15;4.00;;;7.10;99.90;;;;;;5094381;28;20036;-85
2023/05/04 00:16:54;;;;;;;8.50;4.18;;;7.00;99.90;;;;;;5095419;28;20040;-85
2023/05/04 00:19:20;;;;;;;11.23;4.75;;;7.10;99.90;;;;;;5094445;28;20466;-85
2023/05/04 00:21:45;;;;;;;11.13;5.18;;;7.10;99.90;;;;;;5095126;28;20046;-85
2023/05/04 00:24:11;;;;;;;9.57;4.00;;;7.00;99.90;;;;;;5093825;28;20511;-85
2023/05/04 00:26:37;;;;;;;11.13;4.30;;;7.00;99.90;;;;;;5095266;28;20474;-86
2023/05/04 00:29:02;;;;;;;8.52;4.55;;;7.00;99.90;;;;;;5095046;28;20036;-86
2023/05/04 00:31:28;;;;;;;9.70;4.63;;;7.00;99.90;;;;;;5094895;28;20036;-85
2023/05/04 00:33:53;;;;;;;9.32;4.97;;;7.00;99.90;;;;;;5093937;28;20498;-85
2023/05/04 00:36:19;;;;;;;10.50;4.00;;;7.00;99.90;;;;;;5094913;28;20373;-85
2023/05/04 00:38:49;;;;;;;9.70;4.20;;;7.00;99.90;;;;;;5095001;28;20047;-85
2023/05/04 00:41:16;;;;;;;14.25;5.25;;;7.00;99.90;;;;;;5094880;28;20036;-85
2023/05/04 00:43:41;;;;;;;11.05;5.82;;;6.90;99.90;;;;;;5094785;28;20100;-85
2023/05/04 00:46:09;;;;;;;13.20;5.68;;;6.90;99.90;;;;;;5094814;28;20445;-85
2023/05/04 00:48:35;;;;;;;11.15;4.95;;;6.90;99.90;;;;;;5094774;28;20048;-85
2023/05/04 00:51:01;;;;;;;11.63;5.68;;;6.90;99.90;;;;;;5094726;28;20040;-85
2023/05/04 00:53:27;;;;;;;11.38;4.80;;;6.90;99.90;;;;;;5093663;28;20507;-86
2023/05/04 00:55:52;;;;;;;10.40;5.60;;;6.90;99.90;;;;;;5094503;28;20044;-85
2023/05/04 00:58:18;;;;;;;15.07;5.72;;;6.90;99.90;;;;;;5094158;28;20560;-86
2023/05/04 01:00:44;;;;;;;14.55;5.82;;;6.90;99.90;;;;;;5093043;28;20535;-86
2023/05/04 01:03:09;;;;;;;10.80;5.43;;;6.80;99.90;;;;;;5094516;28;20044;-85
2023/05/04 01:05:41;;;;;;;13.25;5.40;;;6.80;99.90;;;;;;5094487;28;20429;-85
2023/05/04 01:08:13;;;;;;;10.40;5.05;;;6.80;99.90;;;;;;5094496;28;20044;-85
2023/05/04 01:10:48;;;;;;;9.73;4.43;;;6.80;99.90;;;;;;5093344;28;20051;-85
2023/05/04 01:13:15;;;;;;;11.60;5.10;;;6.80;99.90;;;;;;5094592;28;20123;-85
2023/05/04 01:15:41;;;;;;;10.13;4.65;;;6.80;99.90;;;;;;5092883;28;20461;-85
2023/05/04 01:18:07;;;;;;;12.00;5.40;;;6.80;99.90;;;;;;5094150;28;20048;-86
2023/05/04 01:20:34;;;;;;;11.80;4.97;;;6.80;99.90;;;;;;5092701;28;20483;-85
2023/05/04 01:22:59;;;;;;;11.52;5.28;;;6.80;99.90;;;;;;5094222;28;20092;-85
2023/05/04 01:25:43;;;;;;;11.40;5.30;;;6.80;99.90;;;;;;5092121;28;20056;-85
2023/05/04 01:28:16;;;;;;;9.60;4.35;;;6.80;99.90;;;;;;5094084;28;20051;-86
2023/05/04 01:30:43;;;;;;;;;;;6.80;99.90;;;;;;5094588;28;20039;-85
2023/05/04 01:33:09;;;;;;;10.10;4.85;;;6.80;99.90;;;;;;5094026;28;19926;-86
2023/05/04 01:35:36;;;;;;;12.05;4.60;;;6.80;99.90;;;;;;5093967;28;20093;-85
2023/05/04 01:38:01;;;;;;;10.63;4.20;;;6.80;99.90;;;;;;5092680;28;20904;-85
2023/05/04 01:40:27;;;;;;;8.90;4.65;;;6.80;99.90;;;;;;5093689;28;20048;-86
2023/05/04 01:42:53;;;;;;;12.30;4.72;;;6.80;99.90;;;;;;5093946;28;20036;-86
2023/05/04 01:45:19;;;;;;;10.70;4.95;;;6.80;99.90;;;;;;5093869;28;20412;-86
2023/05/04 01:47:45;;;;;;;10.60;4.60;;;6.80;99.90;;;;;;5092535;28;20055;-85
2023/05/04 01:50:10;;;;;;;8.55;4.75;;;6.80;99.90;;;;;;5093790;28;20040;-85
2023/05/04 01:52:36;;;;;;;9.80;4.35;;;6.80;99.90;;;;;;5093439;28;20492;-85
2023/05/04 01:55:02;;;;;;;9.73;4.60;;;6.80;99.90;;;;;;5093724;28;20085;-85
2023/05/04 01:57:27;;;;;;;11.35;4.05;;;6.80;99.90;;;;;;5092261;28;20101;-85
2023/05/04 01:59:53;;;;;;;13.38;4.43;;;6.80;99.90;;;;;;5093643;28;20055;-85
2023/05/04 02:02:19;;;;;;;9.35;4.00;;;6.90;99.90;;;;;;5093657;28;20055;-85
2023/05/04 02:04:45;;;;;;;11.77;4.68;;;6.80;99.90;;;;;;5092610;28;20044;-85
2023/05/04 02:07:11;;;;;;;7.45;4.32;;;6.90;99.90;;;;;;5093565;28;20541;-85
2023/05/04 02:09:37;;;;;;;12.85;4.10;;;6.90;99.90;;;;;;5092462;28;20077;-85
2023/05/04 02:12:03;;;;;;;11.00;4.10;;;6.90;99.90;;;;;;5093527;28;20506;-85
2023/05/04 02:14:29;;;;;;;10.57;4.35;;;6.90;99.90;;;;;;5093384;28;20127;-85
2023/05/04 02:16:55;;;;;;;7.97;4.53;;;7.00;99.90;;;;;;5093522;28;20070;-86
2023/05/04 02:19:20;;;;;;;8.48;3.80;;;7.00;99.90;;;;;;5092115;28;20134;-86
2023/05/04 02:21:47;;;;;;;11.27;4.30;;;7.00;99.90;;;;;;5093475;28;20044;-86
2023/05/04 02:24:15;;;;;;;11.48;4.40;;;7.00;99.90;;;;;;5093247;28;20059;-85
2023/05/04 02:26:40;;;;;;;8.00;3.72;;;7.00;99.90;;;;;;5093775;28;20044;-85
2023/05/04 02:29:06;;;;;;;9.90;4.13;;;7.00;99.90;;;;;;5093285;28;20040;-86
2023/05/04 02:31:32;;;;;;;9.57;4.57;;;7.00;99.90;;;;;;5093373;28;20160;-86
2023/05/04 02:33:58;;;;;;;6.97;3.80;;;6.90;99.90;;;;;;5092370;28;20161;-85
2023/05/04 02:36:24;;;;;;;10.85;4.40;;;7.00;99.90;;;;;;5093967;28;20032;-85
2023/05/04 02:38:50;;;;;;;11.25;4.45;;;6.90;99.90;;;;;;5097250;28;20433;-85
2023/05/04 02:41:16;;;;;;;10.63;4.65;;;7.00;99.90;;;;;;5096345;28;20048;-86
2023/05/04 02:43:41;;;;;;;10.88;3.92;;;7.00;99.90;;;;;;5097421;28;20044;-86
2023/05/04 02:46:07;;;;;;;7.90;3.60;;;6.90;99.90;;;;;;5097285;28;20075;-86
2023/05/04 02:48:32;;;;;;;8.93;4.00;;;7.00;99.90;;;;;;5095978;28;20044;-85
2023/05/04 02:50:58;;;;;;;11.40;4.47;;;7.00;99.90;;;;;;5096778;28;20036;-86
2023/05/04 02:53:24;;;;;;;11.52;4.10;;;6.90;99.90;;;;;;5097618;28;20058;-86
2023/05/04 02:55:49;;;;;;;9.40;4.00;;;7.00;99.90;;;;;;5095889;28;20375;-86
2023/05/04 02:58:15;;;;;;;8.65;4.15;;;7.00;99.90;;;;;;5096905;28;20040;-86
2023/05/04 03:00:41;;;;;;;9.73;4.10;;;6.90;99.90;;;;;;5096937;28;20036;-86
2023/05/04 03:03:06;;;;;;;10.55;4.88;;;7.00;99.90;;;;;;5095850;28;20384;-86
2023/05/04 03:05:32;;;;;;;10.45;4.60;;;7.00;99.90;;;;;;5096786;28;20074;-86
2023/05/04 03:07:57;;;;;;;12.15;5.85;;;7.00;99.90;;;;;;5096714;28;20415;-86
2023/05/04 03:10:23;;;;;;;12.80;4.68;;;7.00;99.90;;;;;;5095515;28;20072;-86
2023/05/04 03:12:49;;;;;;;11.10;4.53;;;7.00;99.90;;;;;;5096587;28;20180;-86
2023/05/04 03:15:15;;;;;;;13.65;5.15;;;7.00;99.90;;;;;;5096661;28;20039;-85
2023/05/04 03:17:42;;;;;;;9.88;4.60;;;7.00;99.90;;;;;;5095444;28;20048;-85
2023/05/04 03:20:08;;;;;;;12.25;4.75;;;7.00;99.90;;;;;;5097042;28;20491;-85
2023/05/04 03:22:34;;;;;;;11.07;4.93;;;7.00;99.90;;;;;;5096680;28;20044;-85
2023/05/04 03:25:01;;;;;;;13.05;5.60;;;7.00;99.90;;;;;;5096193;28;20059;-85
2023/05/04 03:27:28;;;;;;;14.02;5.63;;;7.10;99.90;;;;;;5096312;28;20499;-85
2023/05/04 03:29:53;;;;;;;11.40;5.13;;;7.10;99.90;;;;;;5095381;28;20052;-85
2023/05/04 03:32:19;;;;;;;12.95;6.18;;;7.10;99.90;;;;;;5096233;28;20044;-85
2023/05/04 03:34:45;;;;;;;10.40;4.68;;;7.10;99.90;;;;;;5096052;28;20186;-85
2023/05/04 03:37:11;;;;;;;12.07;6.10;;;7.10;99.90;;;;;;5096054;28;20048;-86
2023/05/04 03:39:37;;;;;;;11.85;5.07;;;7.10;99.90;;;;;;5096187;28;20442;-86
2023/05/04 03:42:03;;;;;;;12.60;4.80;;;7.10;99.90;;;;;;5096132;28;20036;-86
2023/05/04 03:44:29;;;;;;;13.77;6.05;;;7.10;99.90;;;;;;5095071;28;20050;-86
2023/05/04 03:46:54;;;;;;;13.05;5.00;;;7.10;99.90;;;;;;5096026;28;20040;-86
2023/05/04 03:49:20;;;;;;;10.32;4.93;;;7.20;99.90;;;;;;5096372;28;20048;-86
2023/05/04 03:51:46;;;;;;;11.82;5.20;;;7.20;99.90;;;;;;5096374;28;20471;-86
2023/05/04 03:54:11;;;;;;;10.65;5.25;;;7.20;99.90;;;;;;5095613;28;20046;-85
2023/05/04 03:56:37;;;;;;;12.68;5.97;;;7.20;99.90;;;;;;5095679;28;20090;-86
2023/05/04 03:59:02;;;;;;;12.50;5.68;;;7.20;99.90;;;;;;5094129;28;20044;-86
2023/05/04 04:01:28;;;;;;;12.43;5.75;;;7.20;99.90;;;;;;5094360;28;20072;-85
2023/05/04 04:03:54;;;;;;;12.85;4.90;;;7.20;99.90;;;;;;5094204;28;20131;-85
2023/05/04 04:06:20;;;;;;;15.23;5.60;;;7.20;99.90;;;;;;5094424;28;20036;-85
2023/05/04 04:08:46;;;;;;;10.40;5.07;;;7.20;99.90;;;;;;5094405;28;20123;-85
2023/05/04 04:11:11;;;;;;;11.68;6.20;;;7.30;99.90;;;;;;5095592;28;20552;-86
2023/05/04 04:13:37;;;;;;;15.32;5.60;;;7.30;99.90;;;;;;5095318;28;20089;-85
2023/05/04 04:16:03;;;;;;;10.52;5.53;;;7.30;99.90;;;;;;5095383;28;20169;-86
2023/05/04 04:18:29;;;;;;;10.88;5.30;;;7.30;99.90;;;;;;5095018;28;20039;-86
2023/05/04 04:20:54;;;;;;;14.55;5.43;;;7.30;99.90;;;;;;5095061;28;20055;-85
2023/05/04 04:23:20;;;;;;;12.18;5.25;;;7.30;99.90;;;;;;5095415;28;20036;-85
2023/05/04 04:25:47;;;;;;;12.50;5.28;;;7.30;99.90;;;;;;5094879;28;20059;-86
2023/05/04 04:28:13;;;;;;;12.90;5.07;;;7.30;99.90;;;;;;5095246;28;20059;-86
2023/05/04 04:30:39;;;;;;;15.10;6.22;;;7.40;99.90;;;;;;5094904;28;20059;-85
2023/05/04 04:33:05;;;;;;;14.00;5.90;;;7.40;99.90;;;;;;5093586;28;20514;-86
2023/05/04 04:35:33;;;;;;;11.85;5.28;;;7.40;99.90;;;;;;5095073;28;20036;-86
2023/05/04 04:37:59;;;;;;;10.10;4.57;;;7.40;99.90;;;;;;5094938;28;20170;-86
2023/05/04 04:40:25;;;;;;;12.57;5.43;;;7.50;99.90;;;;;;5095007;28;20072;-86
2023/05/04 04:42:51;;;;;;;15.95;5.25;;;7.50;99.90;;;;;;5095003;28;20032;-85
2023/05/04 04:45:17;;;;;;;13.95;4.90;;;7.50;99.90;;;;;;5093527;28;20052;-85
2023/05/04 04:47:44;;;;;;;10.52;5.05;;;7.50;99.90;;;;;;5093645;28;20048;-85
2023/05/04 04:50:10;;;;;;;11.90;5.70;;;7.50;99.90;;;;;;5094717;28;20075;-86
2023/05/04 04:52:36;;;;;;;14.75;5.07;;;7.50;99.90;;;;;;5094666;28;20054;-85
2023/05/04 04:55:03;;;;;;;11.88;4.68;;;7.60;99.90;;;;;;5094770;28;20081;-85
2023/05/04 04:57:29;;;;;;;10.55;4.88;;;7.60;99.90;;;;;;5094209;28;20407;-85
2023/05/04 04:59:54;;;;;;;14.80;5.45;;;7.60;99.90;;;;;;5094042;28;20048;-85
2023/05/04 05:02:21;;;;;;;13.75;4.82;;;7.60;99.90;;;;;;5093165;28;20058;-85
2023/05/04 05:04:46;;;;;;;11.35;4.70;;;7.60;99.90;;;;;;5093337;28;20122;-85
2023/05/04 05:07:12;;;;;;;10.98;4.45;;;7.60;99.90;;;;;;5094514;28;20551;-85
2023/05/04 05:09:37;;;;;;;13.73;4.68;;;7.70;99.90;;;;;;5094444;28;20452;-85
2023/05/04 05:12:04;;;;;;;11.32;4.55;;;7.70;99.90;;;;;;5093195;28;20040;-85
2023/05/04 05:14:33;;;;;;;11.27;4.30;;;7.70;99.90;;;;;;5093118;28;20044;-86
2023/05/04 05:17:02;;;;;;;13.38;4.15;;;7.70;99.90;;;;;;5093100;28;20488;-85
2023/05/04 05:19:28;;;;;;;9.60;3.88;;;7.80;99.90;;;;;;5092730;28;20091;-86
2023/05/04 05:21:55;;;;;;;7.47;3.70;;;7.80;99.90;;;;;;5092749;28;20498;-86
2023/05/04 05:24:25;;;;;;;11.40;3.78;;;7.80;99.90;;;;;;5093865;28;20127;-85
2023/05/04 05:26:51;;;;;;;9.18;4.05;;;7.90;99.90;;;;;;5094170;28;20043;-86
2023/05/04 05:29:17;;;;;;;7.93;4.00;;;7.90;99.90;;;;;;5094159;28;20044;-85
2023/05/04 05:31:43;;;;;;;10.85;3.80;;;8.00;99.90;;;;;;5093904;28;20088;-85
2023/05/04 05:34:08;;;;;;;11.02;3.75;;;8.00;99.90;;;;;;5093893;28;20044;-86
2023/05/04 05:36:34;;;;;;;7.75;3.28;;;8.00;99.90;;;;;;5094013;28;20047;-86
2023/05/04 05:39:00;;;;;;;10.98;3.83;;;8.10;99.90;;;;;;5093926;28;20048;-86
2023/05/04 05:41:25;;;;;;;11.70;4.03;;;8.20;99.90;;;;;;5093839;28;20036;-85
2023/05/04 05:43:51;;;;;;;12.15;4.15;;;8.20;99.90;;;;;;5093909;28;20050;-85
2023/05/04 05:46:17;;;;;;;13.55;4.25;;;8.30;99.90;;;;;;5093631;28;20031;-85
2023/05/04 05:48:43;;;;;;;16.05;5.03;;;8.30;99.90;;;;;;5093920;28;20411;-85
2023/05/04 05:51:09;;;;;;;9.60;4.20;;;8.30;99.90;;;;;;5093970;28;20043;-86
2023/05/04 05:53:34;;;;;;;13.20;3.88;;;8.40;99.90;;;;;;5092506;28;20078;-85
2023/05/04 05:56:00;;;;;;;11.45;4.93;;;8.50;99.90;;;;;;5092543;28;20079;-86
2023/05/04 05:58:25;;;;;;;11.00;4.35;;;8.60;99.90;;;;;;5093302;28;20548;-85
2023/05/04 06:00:51;;;;;;;8.60;3.40;;;8.60;99.90;;;;;;5093358;28;20062;-85
2023/05/04 06:03:17;;;;;;;10.00;4.03;;;8.70;99.90;;;;;;5093614;28;20480;-86
2023/05/04 06:05:42;;;;;;;11.45;4.03;;;8.80;99.90;;;;;;5092105;28;20040;-86
2023/05/04 06:08:08;;;;;;;9.43;3.67;;;9.00;99.90;;;;;;5093396;28;20079;-85
2023/05/04 06:10:37;;;;;;;11.30;4.15;;;9.00;99.90;;;;;;5092402;28;20048;-85
2023/05/04 06:13:03;;;;;;;14.13;4.10;;;9.10;99.90;;;;;;5097109;28;20143;-86
2023/05/04 06:15:29;;;;;;;9.30;4.18;;;9.30;99.90;;;;;;5097813;28;20072;-86
2023/05/04 06:17:54;;;;;;;8.25;4.63;;;9.30;99.90;;;;;;5097622;28;20136;-85
2023/05/04 06:20:20;;;;;;;12.30;5.03;;;9.40;99.90;;;;;;5097469;28;20517;-86
2023/05/04 06:22:46;;;;;;;9.63;4.65;;;9.40;99.90;;;;;;5096263;28;20040;-84
2023/05/04 06:25:12;;;;;;;12.73;4.45;;;9.30;99.90;;;;;;5096114;28;20061;-86
2023/05/04 06:27:37;;;;;;;14.30;4.55;;;9.30;99.90;;;;;;5096458;28;20059;-86
2023/05/04 06:30:04;;;;;;;9.35;3.78;;;9.30;99.90;;;;;;5097470;28;20044;-85
2023/05/04 06:32:29;;;;;;;14.98;5.50;;;9.40;99.90;;;;;;5097420;28;20040;-86
2023/05/04 06:34:55;;;;;;;10.77;4.00;;;9.40;99.90;;;;;;5090470;28;20056;-84
2023/05/04 06:37:21;;;;;;;12.32;3.83;;;9.50;99.90;;;;;;5081991;28;20040;-86
2023/05/04 06:39:47;;;;;;;9.25;3.97;;;9.60;99.90;;;;;;5075322;28;20067;-86
2023/05/04 06:42:12;;;;;;;11.82;4.90;;;9.60;99.90;;;;;;5076858;28;20037;-85
2023/05/04 06:44:38;;;;;;;11.50;4.55;;;9.60;99.90;;;;;;5076518;28;20450;-86
2023/05/04 06:47:06;;;;;;;11.45;4.00;;;9.70;99.90;;;;;;5076771;28;20072;-82
2023/05/04 06:49:32;;;;;;;8.98;3.97;;;9.70;99.90;;;;;;5076734;28;20033;-86
2023/05/04 06:51:58;;;;;;;9.93;4.22;;;9.70;99.90;;;;;;5076450;28;20041;-86
2023/05/04 06:54:24;;;;;;;10.30;4.10;;;9.70;99.90;;;;;;5075372;28;20507;-86
2023/05/04 06:56:50;;;;;;;10.57;4.32;;;9.80;99.90;;;;;;5076543;28;20037;-86
2023/05/04 06:59:19;;;;;;;11.15;3.92;;;9.80;99.90;;;;;;5076476;28;20128;-86
2023/05/04 07:01:47;;;;;;;10.82;4.28;;;9.80;99.90;;;;;;5074964;28;20060;-86
2023/05/04 07:04:15;;;;;;;17.90;5.18;;;10.00;99.90;;;;;;5074925;28;20499;-86
2023/05/04 07:06:42;;;;;;;8.32;3.90;;;10.30;99.90;;;;;;5074877;28;20052;-86
2023/05/04 07:09:07;;;;;;;13.57;4.95;;;10.30;99.90;;;;;;5076076;28;20052;-86
2023/05/04 07:11:33;;;;;;;12.90;4.63;;;10.50;99.90;;;;;;5076337;28;20033;-86
2023/05/04 07:13:59;;;;;;;10.93;5.10;;;10.50;99.90;;;;;;5075093;28;20499;-86
2023/05/04 07:16:25;;;;;;;14.02;4.47;;;10.50;99.90;;;;;;5074730;28;20400;-86
2023/05/04 07:18:50;;;;;;;10.75;4.78;;;10.40;99.90;;;;;;5075912;28;20051;-86
2023/05/04 07:21:16;;;;;;;10.32;4.25;;;10.30;99.90;;;;;;5074849;28;20040;-87
2023/05/04 07:23:42;;;;;;;10.73;5.50;;;10.50;99.90;;;;;;5075204;28;20434;-86
2023/05/04 07:26:07;;;;;;;10.88;4.60;;;10.60;99.90;;;;;;5075607;28;20522;-86
2023/05/04 07:28:33;;;;;;;17.45;4.53;;;10.80;99.90;;;;;;5076037;28;20135;-87
2023/05/04 07:30:59;;;;;;;10.05;5.18;;;11.10;99.90;;;;;;5075922;28;20048;-86
2023/05/04 07:33:25;;;;;;;10.85;4.63;;;11.10;99.90;;;;;;5074909;28;20480;-86
2023/05/04 07:35:57;;;;;;;11.15;5.10;;;11.20;99.90;;;;;;5076173;28;20049;-86
2023/05/04 07:38:24;;;;;;;8.57;4.63;;;11.10;99.90;;;;;;5075875;28;20045;-86
2023/05/04 07:40:50;;;;;;;11.80;4.88;;;11.30;99.90;;;;;;5075953;28;20041;-86
2023/05/04 07:43:15;;;;;;;11.25;5.43;;;11.30;99.90;;;;;;5075944;28;20365;-85
2023/05/04 07:45:41;;;;;;;11.50;5.05;;;11.50;99.90;;;;;;5075774;28;20056;-85
2023/05/04 07:48:07;;;;;;;9.90;5.07;;;11.60;99.90;;;;;;5075583;28;20045;-84
2023/05/04 07:50:33;;;;;;;12.88;5.10;;;11.50;99.90;;;;;;5075163;28;20043;-86
2023/05/04 07:52:58;;;;;;;12.10;5.13;;;11.50;99.90;;;;;;5074253;28;20445;-86
2023/05/04 07:55:25;;;;;;;12.05;5.57;;;11.70;99.90;;;;;;5074487;28;20472;-86
2023/05/04 07:57:50;;;;;;;7.47;4.50;;;11.60;99.90;;;;;;5075351;28;20504;-86
2023/05/04 08:00:17;;;;;;;12.20;5.40;;;11.40;99.90;;;;;;5075484;28;20091;-86
2023/05/04 08:02:42;;;;;;;10.80;5.03;;;11.50;99.90;;;;;;5075607;28;20101;-86
2023/05/04 08:05:08;;;;;;;8.80;4.85;;;11.70;99.90;;;;;;5075382;28;20048;-86
2023/05/04 08:07:34;;;;;;;12.52;5.10;;;11.80;99.90;;;;;;5075488;28;20388;-86
2023/05/04 08:09:59;;;;;;;15.23;5.70;;;12.10;99.90;;;;;;5075427;28;20040;-86
2023/05/04 08:12:25;;;;;;;15.90;5.35;;;12.00;99.90;;;;;;5075097;28;20054;-86
2023/05/04 08:14:51;;;;;;;9.77;4.85;;;12.00;99.90;;;;;;5073873;28;20056;-86
2023/05/04 08:17:17;;;;;;;11.25;4.90;;;12.00;99.90;;;;;;5075256;28;20537;-86
2023/05/04 08:19:42;;;;;;;10.85;5.00;;;12.00;99.90;;;;;;5073602;28;20048;-86
2023/05/04 08:22:09;;;;;;;11.80;5.30;;;12.00;99.90;;;;;;5074921;28;20102;-86
2023/05/04 08:24:35;;;;;;;16.58;4.60;;;11.80;99.90;;;;;;5073363;28;20056;-86
2023/05/04 08:27:01;;;;;;;14.65;5.63;;;11.90;99.90;;;;;;5074998;28;20052;-87
2023/05/04 08:29:27;;;;;;;10.35;5.72;;;11.60;99.90;;;;;;5075035;28;20045;-86
2023/05/04 08:31:57;;;;;;;13.23;5.75;;;11.70;99.90;;;;;;5074973;28;20036;-86
2023/05/04 08:34:23;;;;;;;11.38;5.32;;;11.40;99.90;;;;;;5074005;28;20044;-87
2023/05/04 08:36:49;;;;;;;12.38;5.72;;;11.50;99.90;;;;;;5074873;28;20048;-86
2023/05/04 08:39:17;;;;;;;9.88;5.30;;;11.40;99.90;;;;;;5074463;28;20118;-86
2023/05/04 08:41:43;;;;;;;9.80;5.07;;;11.40;99.90;;;;;;5074666;28;20056;-86
2023/05/04 08:44:10;;;;;;;15.93;6.03;;;11.40;99.90;;;;;;5073209;28;20048;-86
2023/05/04 08:46:39;;;;;;;10.82;5.50;;;11.30;99.90;;;;;;5074716;28;20056;-86
2023/05/04 08:49:06;;;;;;;15.70;5.63;;;11.50;99.90;;;;;;5074306;28;20048;-86
2023/05/04 08:51:34;;;;;;;15.63;5.68;;;11.60;99.90;;;;;;5073346;28;20124;-86
2023/05/04 08:54:02;;;;;;;11.85;5.95;;;11.70;99.90;;;;;;5074232;28;20396;-86
2023/05/04 08:56:29;;;;;;;14.48;6.18;;;11.70;99.90;;;;;;5073164;28;20080;-86
2023/05/04 08:59:00;;;;;;;13.63;6.55;;;11.50;99.90;;;;;;5074135;28;20049;-86
2023/05/04 09:01:27;;;;;;;13.18;6.80;;;11.70;99.90;;;;;;5072883;28;20051;-86
2023/05/04 09:03:52;;;;;;;12.15;6.72;;;11.80;99.90;;;;;;5074314;28;20135;-86
2023/05/04 09:06:19;;;;;;;14.75;6.35;;;11.80;99.90;;;;;;5074016;28;20083;-86
2023/05/04 09:08:45;;;;;;;9.05;5.45;;;12.00;99.90;;;;;;5074239;28;20040;-86
2023/05/04 09:11:10;;;;;;;9.43;5.43;;;11.80;99.90;;;;;;5073005;28;20049;-86
2023/05/04 09:13:37;;;;;;;11.75;6.30;;;12.00;99.90;;;;;;5073993;28;20036;-86
2023/05/04 09:16:03;;;;;;;15.55;6.20;;;12.10;99.90;;;;;;5074112;28;20127;-87
2023/05/04 09:18:36;;;;;;;13.43;6.43;;;12.30;99.90;;;;;;5073675;28;20139;-86
2023/05/04 09:21:02;;;;;;;15.10;6.18;;;12.40;99.90;;;;;;5072578;28;20609;-86
2023/05/04 09:23:28;;;;;;;11.70;6.20;;;12.30;99.90;;;;;;5072592;28;20048;-86
2023/05/04 09:25:55;;;;;;;12.10;6.40;;;12.40;99.90;;;;;;5073590;28;20092;-87
2023/05/04 09:28:38;;;;;;;13.20;6.90;;;12.80;99.90;;;;;;5073978;28;20071;-86
2023/05/04 09:31:06;;;;;;;12.77;6.05;;;12.80;99.90;;;;;;5072508;28;20102;-86
2023/05/04 09:33:31;;;;;;;16.10;7.45;;;12.60;99.90;;;;;;5073936;28;20067;-86
2023/05/04 09:36:10;;;;;;;16.33;6.88;;;12.60;99.90;;;;;;5072587;28;20044;-86
2023/05/04 09:38:36;;;;;;;11.48;5.55;;;12.90;99.90;;;;;;5073605;28;20480;-86
2023/05/04 09:41:02;;;;;;;10.35;5.70;;;13.10;99.90;;;;;;5072517;28;20059;-86
2023/05/04 09:43:40;;;;;;;14.07;7.03;;;13.40;99.90;;;;;;5073505;28;20072;-86
2023/05/04 09:46:07;;;;;;;12.15;6.25;;;13.30;99.90;;;;;;5072397;28;20048;-86
2023/05/04 09:48:33;;;;;;;11.23;6.43;;;13.40;99.90;;;;;;5072419;28;20127;-86
2023/05/04 09:51:05;;;;;;;12.93;6.75;;;13.30;99.90;;;;;;5073694;28;20123;-86
2023/05/04 09:53:31;;;;;;;14.88;6.63;;;13.30;99.90;;;;;;5073530;28;20404;-86
2023/05/04 09:56:28;;;;;;;9.93;6.40;;;13.70;99.90;;;;;;5073665;28;20048;-86
2023/05/04 09:58:58;;;;;;;14.18;6.80;;;13.80;99.90;;;;;;5072103;28;20044;-86
2023/05/04 10:01:28;;;;;;;17.40;6.50;;;13.50;99.90;;;;;;5073481;28;20047;-86
2023/05/04 10:03:54;;;;;;;15.35;7.07;;;13.60;99.90;;;;;;5073522;28;20050;-86
2023/05/04 10:06:21;;;;;;;12.60;5.97;;;13.50;99.90;;;;;;5073219;28;20037;-86
2023/05/04 10:08:48;;;;;;;11.93;6.63;;;13.50;99.90;;;;;;5072265;28;20048;-86
2023/05/04 10:11:17;;;;;;;18.55;7.40;;;13.30;99.90;;;;;;5072274;28;20049;-86
2023/05/04 10:13:44;;;;;;;10.02;6.07;;;13.30;99.90;;;;;;5073313;28;20068;-86
2023/05/04 10:16:34;;;;;;;14.35;6.97;;;13.60;99.90;;;;;;5073061;28;20427;-86
2023/05/04 10:19:38;;;;;;;14.00;6.93;;;13.80;99.90;;;;;;5072995;28;20403;-86
2023/05/04 10:22:03;;;;;;;;;;;13.80;99.90;;;;;;5073792;28;20037;-86
2023/05/04 10:24:45;;;;;;;13.18;7.13;;;13.90;99.90;;;;;;5073050;28;20336;-86
2023/05/04 10:27:32;;;;;;;11.93;6.40;;;13.70;99.90;;;;;;5072169;28;20053;-85
2023/05/04 10:30:06;;;;;;;14.13;7.13;;;13.90;99.90;;;;;;5072985;28;20055;-86
2023/05/04 10:32:38;;;;;;;16.50;7.80;;;14.10;99.90;;;;;;5073212;28;20045;-86
2023/05/04 10:35:08;;;;;;;17.48;8.57;;;14.10;99.90;;;;;;5072017;28;20060;-85
2023/05/04 10:37:36;;;;;;;16.33;9.07;;;14.10;99.90;;;;;;5071852;28;20051;-85
2023/05/04 10:40:07;;;;;;;19.42;9.50;;;14.40;99.90;;;;;;5073230;28;20115;-85
2023/05/04 10:42:43;;;;;;;19.17;9.15;;;14.30;99.90;;;;;;5073231;28;20045;-87
2023/05/04 10:45:09;;;;;;;17.73;8.30;;;14.50;99.90;;;;;;5073212;28;20050;-86
2023/05/04 10:47:39;;;;;;;15.98;9.38;;;14.60;99.90;;;;;;5071603;28;20050;-86
2023/05/04 10:50:13;;;;;;;15.65;8.48;;;14.70;99.90;;;;;;5071855;28;20066;-85
2023/05/04 10:52:52;;;;;;;17.35;8.30;;;14.30;99.90;;;;;;5071632;28;20045;-86
2023/05/04 10:55:19;;;;;;;14.32;7.95;;;14.10;99.90;;;;;;5073038;28;20043;-86
2023/05/04 10:57:57;;;;;;;13.52;8.07;;;14.40;99.90;;;;;;5072839;28;20048;-85
2023/05/04 11:00:38;;;;;;;12.00;8.02;;;14.40;99.90;;;;;;5076724;28;20127;-85
2023/05/04 11:03:06;;;;;;;17.67;8.57;;;14.60;99.90;;;;;;5075208;28;20480;-86
2023/05/04 11:05:46;;;;;;;17.90;8.00;;;14.60;99.90;;;;;;5076442;28;20048;-85
2023/05/04 11:08:18;;;;;;;14.43;8.50;;;14.70;99.90;;;;;;5076351;28;20441;-85
2023/05/04 11:10:47;;;;;;;18.10;8.13;;;15.10;99.90;;;;;;5076404;28;20040;-86
2023/05/04 11:13:17;;;;;;;13.27;7.97;;;15.30;99.90;;;;;;5075228;28;20055;-86
2023/05/04 11:15:47;;;;;;;15.23;8.10;;;15.30;99.90;;;;;;5076458;28;20130;-86
2023/05/04 11:18:13;;;;;;;14.80;8.60;;;15.40;99.90;;;;;;5074822;28;20145;-86
2023/05/04 11:20:38;;;;;;;16.17;8.50;;;15.10;99.90;;;;;;5075113;28;20139;-86
2023/05/04 11:23:08;;;;;;;16.33;8.93;;;14.90;99.90;;;;;;5074940;28;20119;-86
2023/05/04 11:25:38;;;;;;;15.35;8.23;;;14.70;99.90;;;;;;5074636;28;20102;-86
2023/05/04 11:28:04;;;;;;;17.08;7.78;;;14.50;99.90;;;;;;5075960;28;20504;-86
2023/05/04 11:30:33;;;;;;;17.10;8.13;;;14.90;99.90;;;;;;5075922;28;20072;-85
2023/05/04 11:33:01;;;;;;;15.00;7.93;;;14.80;99.90;;;;;;5076102;28;20048;-86
2023/05/04 11:35:26;;;;;;;13.48;7.75;;;15.20;99.90;;;;;;5075846;28;20404;-86
2023/05/04 11:37:52;;;;;;;13.15;7.60;;;15.30;99.90;;;;;;5075937;28;20037;-86
2023/05/04 11:40:24;;;;;;;17.15;8.10;;;15.20;99.90;;;;;;5074864;28;20052;-85
2023/05/04 11:42:51;;;;;;;16.30;7.75;;;15.00;99.90;;;;;;5075707;28;20545;-86
2023/05/04 11:45:23;;;;;;;12.77;7.75;;;15.00;99.90;;;;;;5075726;28;20045;-85
2023/05/04 11:47:51;;;;;;;13.98;7.47;;;15.10;99.90;;;;;;5075730;28;20040;-86
2023/05/04 11:50:18;;;;;;;11.45;6.43;;;15.40;99.90;;;;;;5074343;28;20138;-86
2023/05/04 11:52:44;;;;;;;14.68;7.88;;;15.70;99.90;;;;;;5074316;28;20044;-86
2023/05/04 11:55:23;;;;;;;16.25;7.95;;;15.50;99.90;;;;;;5075589;28;20032;-86
2023/05/04 11:57:56;;;;;;;13.63;8.13;;;15.50;99.90;;;;;;5075493;28;20557;-86
2023/05/04 12:00:32;;;;;;;16.00;7.43;;;15.30;99.90;;;;;;5075706;28;20052;-86
2023/05/04 12:02:59;;;;;;;12.57;8.30;;;15.20;99.90;;;;;;5074060;28;20436;-86
2023/05/04 12:05:25;;;;;;;15.20;8.23;;;15.30;99.90;;;;;;5075621;28;20128;-86
2023/05/04 12:07:51;;;;;;;14.93;8.63;;;15.20;99.90;;;;;;5075531;28;20036;-86
2023/05/04 12:10:27;;;;;;;13.80;8.05;;;15.20;99.90;;;;;;5075370;28;20492;-85
2023/05/04 12:12:53;;;;;;;15.68;8.27;;;15.40;99.90;;;;;;5073995;28;20054;-86
2023/05/04 12:15:30;;;;;;;17.48;9.23;;;15.60;99.90;;;;;;5075177;28;20041;-86
2023/05/04 12:17:56;;;;;;;12.65;8.30;;;15.50;99.90;;;;;;5075242;28;20048;-86
2023/05/04 12:20:27;;;;;;;14.20;8.75;;;15.50;99.90;;;;;;5074935;28;20040;-86
2023/05/04 12:22:54;;;;;;;14.00;8.60;;;15.30;99.90;;;;;;5073855;28;20069;-86
2023/05/04 12:25:26;;;;;;;15.45;8.70;;;15.40;99.90;;;;;;5074799;28;20049;-86
2023/05/04 12:27:52;;;;;;;13.67;8.70;;;15.10;99.90;;;;;;5073575;28;20057;-86
2023/05/04 12:30:17;;;;;;;14.25;7.70;;;15.20;99.90;;;;;;5075032;28;20287;-85
2023/05/04 12:32:43;;;;;;;19.17;8.95;;;15.50;99.90;;;;;;5074970;28;20464;-86
2023/05/04 12:35:09;;;;;;;14.75;8.32;;;15.50;99.90;;;;;;5073776;28;20048;-86
2023/05/04 12:37:35;;;;;;;14.38;7.93;;;15.70;99.90;;;;;;5073333;28;20072;-85
2023/05/04 12:40:01;;;;;;;17.67;7.57;;;15.60;99.90;;;;;;5073562;28;20094;-86
2023/05/04 12:42:27;;;;;;;15.52;8.77;;;15.80;99.90;;;;;;5073284;28;20045;-86
2023/05/04 12:44:53;;;;;;;17.60;8.55;;;15.80;99.90;;;;;;5073379;28;20086;-86
2023/05/04 12:47:19;;;;;;;17.85;9.02;;;15.90;99.90;;;;;;5073792;28;20083;-86